createdAt,value
2019-05-14T00:00:14.376Z,9.15
2019-05-14T00:04:38.509Z,9.04
2019-05-14T00:09:02.455Z,9.04
2019-05-14T00:13:26.709Z,8.97
2019-05-14T00:17:52.440Z,8.94
2019-05-14T00:22:17.662Z,8.84
2019-05-14T00:26:42.673Z,8.84
2019-05-14T00:31:07.138Z,8.70
2019-05-14T00:35:32.477Z,8.70
2019-05-14T00:39:56.629Z,8.74
2019-05-14T00:44:21.382Z,8.63
2019-05-14T00:48:43.305Z,8.60
2019-05-14T00:53:07.414Z,8.64
2019-05-14T00:57:31.692Z,8.52
2019-05-14T01:01:55.546Z,8.52
2019-05-14T01:06:21.731Z,8.52
2019-05-14T01:10:44.955Z,8.52
2019-05-14T01:15:13.383Z,8.50
2019-05-14T01:19:36.078Z,8.50
2019-05-14T01:24:01.864Z,8.45
2019-05-14T01:28:25.376Z,8.40
2019-05-14T01:32:51.129Z,8.37
2019-05-14T01:37:15.094Z,8.28
2019-05-14T01:41:38.906Z,8.28
2019-05-14T01:46:03.109Z,8.25
2019-05-14T01:50:27.216Z,8.21
2019-05-14T01:54:51.501Z,8.17
2019-05-14T01:59:15.701Z,8.11
2019-05-14T02:03:41.088Z,8.02
2019-05-14T02:08:06.046Z,7.96
2019-05-14T02:12:31.532Z,7.91
2019-05-14T02:16:54.182Z,7.89
2019-05-14T02:21:16.802Z,7.81
2019-05-14T02:25:41.310Z,7.77
2019-05-14T02:30:06.446Z,7.70
2019-05-14T02:34:30.570Z,7.62
2019-05-14T02:38:55.648Z,7.57
2019-05-14T02:43:20.264Z,7.66
2019-05-14T02:47:44.387Z,7.70
2019-05-14T02:52:09.895Z,7.66
2019-05-14T02:56:34.411Z,7.63
2019-05-14T03:01:00.375Z,7.59
2019-05-14T03:05:23.993Z,7.62
2019-05-14T03:09:50.173Z,7.66
2019-05-14T03:14:12.810Z,7.69
2019-05-14T03:18:35.876Z,7.69
2019-05-14T03:23:07.986Z,7.65
2019-05-14T03:27:23.829Z,7.63
2019-05-14T03:31:52.314Z,7.60
2019-05-14T03:36:17.644Z,7.56
2019-05-14T03:40:39.990Z,7.56
2019-05-14T03:45:08.584Z,7.45
2019-05-14T03:49:32.738Z,7.37
2019-05-14T03:54:05.625Z,7.37
2019-05-14T03:58:23.225Z,7.38
2019-05-14T04:02:49.013Z,7.42
2019-05-14T04:07:14.282Z,7.45
2019-05-14T04:11:40.337Z,7.45
2019-05-14T04:16:05.298Z,7.44
2019-05-14T04:20:32.163Z,7.44
2019-05-14T04:24:59.713Z,7.46
2019-05-14T04:29:30.322Z,7.41
2019-05-14T04:33:51.392Z,7.46
2019-05-14T04:38:14.741Z,7.53
2019-05-14T04:42:40.142Z,7.60
2019-05-14T04:47:20.209Z,7.53
2019-05-14T04:51:25.430Z,7.57
2019-05-14T04:55:49.454Z,7.56
2019-05-14T05:00:12.916Z,7.63
2019-05-14T05:04:35.691Z,7.63
2019-05-14T05:09:00.082Z,7.59
2019-05-14T05:13:22.925Z,7.58
2019-05-14T05:17:52.506Z,7.56
2019-05-14T05:22:12.789Z,7.55
2019-05-14T05:26:39.035Z,7.58
2019-05-14T05:31:02.760Z,7.65
2019-05-14T05:35:29.034Z,7.80
2019-05-14T05:39:52.213Z,7.90
2019-05-14T05:44:16.020Z,7.99
2019-05-14T05:48:40.139Z,8.09
2019-05-14T05:53:05.506Z,8.27
2019-05-14T05:57:30.635Z,8.38
2019-05-14T06:01:55.043Z,8.55
2019-05-14T06:06:19.432Z,8.82
2019-05-14T06:10:43.440Z,9.23
2019-05-14T06:15:08.704Z,9.76
2019-05-14T06:19:33.140Z,10.51
2019-05-14T06:45:44.171Z,13.04
2019-05-14T06:50:09.739Z,13.42
2019-05-14T06:54:33.834Z,13.78
2019-05-14T07:25:18.420Z,16.06
2019-05-14T07:29:42.570Z,16.31
2019-05-14T07:34:08.725Z,16.33
2019-05-14T07:38:39.241Z,16.88
2019-05-14T07:43:09.253Z,16.88
2019-05-14T07:47:33.481Z,17.24
2019-05-14T07:51:58.714Z,17.32
2019-05-14T07:56:22.863Z,17.59
2019-05-14T08:00:48.984Z,18.02
2019-05-14T08:05:12.977Z,18.39
2019-05-14T08:09:35.915Z,18.66
2019-05-14T09:02:05.445Z,20.58
2019-05-14T09:06:21.244Z,20.41
2019-05-14T09:23:49.424Z,19.78
2019-05-14T09:28:12.849Z,19.95
2019-05-14T09:36:59.364Z,19.64
2019-05-14T09:41:27.513Z,19.77
2019-05-14T09:45:50.108Z,19.65
2019-05-14T09:50:29.017Z,19.86
2019-05-14T09:54:54.596Z,19.98
2019-05-14T09:59:23.934Z,19.87
2019-05-14T10:03:49.623Z,19.81
2019-05-14T10:08:13.549Z,20.07
2019-05-14T10:12:44.703Z,20.19
2019-05-14T10:17:02.875Z,20.73
2019-05-14T10:21:29.209Z,21.05
2019-05-14T10:25:52.805Z,21.12
2019-05-14T10:30:18.237Z,21.29
2019-05-14T10:34:42.181Z,21.57
2019-05-14T10:39:09.405Z,21.49
2019-05-14T10:43:33.410Z,21.66
2019-05-14T10:47:58.603Z,21.57
2019-05-14T10:52:23.091Z,21.78
2019-05-14T10:56:49.503Z,22.25
2019-05-14T11:01:12.471Z,22.51
2019-05-14T11:05:41.264Z,22.85
2019-05-14T11:10:02.715Z,22.77
2019-05-14T11:14:31.325Z,22.95
2019-05-14T11:18:52.416Z,23.21
2019-05-14T11:23:18.457Z,23.25
2019-05-14T11:27:42.232Z,23.41
2019-05-14T11:32:09.350Z,23.73
2019-05-14T11:36:31.909Z,23.40
2019-05-14T11:40:58.576Z,23.10
2019-05-14T11:45:23.635Z,22.76
2019-05-14T11:49:49.198Z,22.53
2019-05-14T11:54:13.526Z,22.53
2019-05-14T11:58:37.610Z,22.46
2019-05-14T12:03:01.702Z,22.66
2019-05-14T12:07:27.948Z,22.70
2019-05-14T12:11:51.298Z,22.79
2019-05-14T12:16:15.457Z,22.58
2019-05-14T12:20:39.884Z,22.63
2019-05-14T12:25:04.193Z,22.58
2019-05-14T12:29:29.194Z,22.58
2019-05-14T12:33:53.446Z,22.51
2019-05-14T12:38:18.723Z,22.80
2019-05-14T12:42:43.665Z,23.15
2019-05-14T12:47:09.483Z,23.50
2019-05-14T12:51:33.514Z,23.17
2019-05-14T12:55:57.821Z,23.08
2019-05-14T13:00:22.294Z,23.42
2019-05-14T13:04:48.639Z,23.67
2019-05-14T13:09:12.866Z,23.18
2019-05-14T13:13:42.413Z,23.18
2019-05-14T13:18:03.375Z,23.27
2019-05-14T13:22:39.269Z,23.47
2019-05-14T13:26:53.086Z,23.29
2019-05-14T13:31:18.328Z,22.92
2019-05-14T13:35:42.642Z,23.19
2019-05-14T13:40:09.279Z,23.37
2019-05-14T13:44:33.769Z,23.48
2019-05-14T13:48:59.152Z,23.51
2019-05-14T13:53:23.569Z,23.01
2019-05-14T13:57:48.665Z,23.01
2019-05-14T14:02:13.518Z,23.10
2019-05-14T14:06:39.357Z,23.30
2019-05-14T14:11:04.362Z,23.37
2019-05-14T14:15:28.905Z,23.38
2019-05-14T14:19:53.319Z,23.23
2019-05-14T14:24:19.691Z,23.14
2019-05-14T14:28:42.994Z,23.24
2019-05-14T14:33:07.140Z,23.24
2019-05-14T14:37:31.297Z,23.02
2019-05-14T14:41:55.369Z,22.65
2019-05-14T14:46:19.999Z,22.38
2019-05-14T14:50:44.190Z,22.43
2019-05-14T14:55:08.829Z,22.56
2019-05-14T14:59:32.625Z,22.35
2019-05-14T15:03:56.430Z,22.17
2019-05-14T15:08:20.854Z,22.06
2019-05-14T15:12:45.941Z,22.07
2019-05-14T15:17:10.025Z,21.99
2019-05-14T15:21:33.937Z,21.83
2019-05-14T15:25:58.918Z,21.86
2019-05-14T15:30:23.314Z,21.88
2019-05-14T15:34:50.270Z,21.83
2019-05-14T15:39:12.696Z,21.71
2019-05-14T15:43:50.201Z,21.55
2019-05-14T15:48:14.478Z,21.59
2019-05-14T15:52:39.794Z,21.56
2019-05-14T15:57:03.910Z,21.49
2019-05-14T16:01:28.610Z,21.37
2019-05-14T16:05:53.446Z,21.10
2019-05-14T16:10:21.751Z,21.03
2019-05-14T16:14:43.982Z,20.91
2019-05-14T16:19:29.020Z,20.89
2019-05-14T16:24:08.275Z,20.87
2019-05-14T16:28:39.124Z,20.67
2019-05-14T16:33:09.132Z,20.63
2019-05-14T16:37:32.230Z,20.46
2019-05-14T16:41:58.301Z,20.41
2019-05-14T16:46:23.391Z,20.36
2019-05-14T16:50:48.962Z,20.31
2019-05-14T16:55:23.299Z,20.26
2019-05-14T16:59:40.659Z,19.90
2019-05-14T17:04:09.024Z,19.90
2019-05-14T17:08:44.504Z,19.72
2019-05-14T17:13:09.161Z,19.65
2019-05-14T17:17:34.651Z,19.56
2019-05-14T17:21:59.511Z,19.44
2019-05-14T17:26:28.783Z,19.21
2019-05-14T17:30:52.944Z,19.21
2019-05-14T17:35:19.549Z,19.13
2019-05-14T17:39:43.804Z,19.00
2019-05-14T17:44:09.043Z,18.94
2019-05-14T17:48:35.280Z,18.79
2019-05-14T17:53:00.255Z,18.69
2019-05-14T17:57:25.947Z,18.61
2019-05-14T18:01:50.088Z,18.52
2019-05-14T18:06:15.402Z,18.52
2019-05-14T18:10:39.616Z,18.21
2019-05-14T18:15:03.612Z,18.08
2019-05-14T18:19:28.997Z,18.04
2019-05-14T18:23:54.005Z,17.97
2019-05-14T18:28:18.072Z,17.97
2019-05-14T18:32:43.398Z,17.91
2019-05-14T18:37:13.379Z,17.88
2019-05-14T18:41:33.560Z,17.66
2019-05-14T18:45:58.732Z,17.66
2019-05-14T18:50:22.879Z,17.55
2019-05-14T18:54:48.340Z,17.45
2019-05-14T18:59:13.385Z,17.37
2019-05-14T19:03:39.703Z,17.10
2019-05-14T19:08:06.116Z,17.10
2019-05-14T19:12:29.994Z,17.03
2019-05-14T19:16:53.821Z,16.88
2019-05-14T19:21:17.763Z,16.71
2019-05-14T19:25:42.263Z,16.56
2019-05-14T19:30:08.450Z,16.41
2019-05-14T19:34:32.760Z,16.23
2019-05-14T19:38:58.412Z,16.08
2019-05-14T19:43:22.722Z,15.94
2019-05-14T19:47:49.117Z,15.82
2019-05-14T19:52:12.955Z,15.69
2019-05-14T19:56:51.852Z,15.56
2019-05-14T20:01:02.586Z,15.30
2019-05-14T20:05:28.706Z,15.18
2019-05-14T20:09:52.490Z,15.18
2019-05-14T20:14:16.373Z,15.04
2019-05-14T20:18:40.364Z,14.92
2019-05-14T20:23:05.670Z,14.80
2019-05-14T20:27:29.892Z,14.71
2019-05-14T20:31:54.056Z,14.60
2019-05-14T20:36:18.779Z,14.46
2019-05-14T20:40:42.785Z,14.36
2019-05-14T20:45:08.254Z,14.27
2019-05-14T20:49:32.060Z,14.20
2019-05-14T20:53:58.073Z,14.12
2019-05-14T20:58:22.612Z,14.02
2019-05-14T21:02:46.558Z,13.90
2019-05-14T21:07:10.871Z,13.81
2019-05-14T21:11:34.925Z,13.62
2019-05-14T21:15:58.845Z,13.62
2019-05-14T21:20:22.990Z,13.56
2019-05-14T21:24:49.737Z,13.50
2019-05-14T21:29:12.940Z,13.41
2019-05-14T21:33:38.899Z,13.29
2019-05-14T21:38:02.864Z,13.20
2019-05-14T21:42:28.547Z,13.13
2019-05-14T21:46:52.789Z,13.04
2019-05-14T21:51:18.028Z,12.95
2019-05-14T21:55:43.385Z,12.83
2019-05-14T22:00:12.899Z,12.77
2019-05-14T22:04:38.675Z,12.64
2019-05-14T22:09:02.675Z,12.64
2019-05-14T22:13:28.482Z,12.56
2019-05-14T22:17:52.912Z,12.48
2019-05-14T22:22:18.664Z,12.37
2019-05-14T22:26:43.877Z,12.30
2019-05-14T22:31:09.104Z,12.25
2019-05-14T22:35:33.473Z,12.15
2019-05-14T22:39:59.957Z,12.08
2019-05-14T22:44:23.864Z,12.08
2019-05-14T22:48:51.339Z,12.03
2019-05-14T22:53:13.809Z,11.98
2019-05-14T22:57:39.253Z,11.96
2019-05-14T23:02:03.873Z,11.87
2019-05-14T23:06:28.209Z,11.87
2019-05-14T23:10:52.541Z,11.82
2019-05-14T23:15:18.182Z,11.78
2019-05-14T23:19:43.538Z,11.75
2019-05-14T23:24:09.217Z,11.68
2019-05-14T23:28:42.594Z,11.63
2019-05-14T23:33:00.523Z,11.56
2019-05-14T23:37:25.552Z,11.50
2019-05-14T23:41:50.407Z,11.40
2019-05-14T23:46:18.211Z,11.40
2019-05-14T23:50:41.519Z,11.34
2019-05-14T23:55:08.331Z,11.27
2019-05-14T23:59:31.780Z,11.20
